Time;durP1;ratioP1;P1;durP2;ratioP2;P2;SDS_P1;SDS_P2;PMS_P1;PMS_P2;Temp;Humidity;BMP_temperature;BMP_pressure;BME280_temperature;BME280_humidity;BME280_pressure;Samples;Min_cycle;Max_cycle;Signal;HPM_P1;HPM_P2
2022/11/12 00:00:49;;;;;;;40.90;19.48;;;10.50;99.90;;;9.69;100.00;102335.28;4202679;28;20064;-75
2022/11/12 00:02:50;;;;;;;85.85;22.67;;;10.50;99.90;;;9.69;100.00;102334.44;4187521;28;20051;-75
2022/11/12 00:04:51;;;;;;;59.80;20.80;;;10.50;99.90;;;9.68;100.00;102327.47;4187411;28;20029;-76
2022/11/12 00:06:52;;;;;;;40.72;19.17;;;10.60;99.90;;;9.66;100.00;102327.59;4186454;28;20017;-76
2022/11/12 00:08:53;;;;;;;29.05;16.88;;;10.60;99.90;;;9.68;100.00;102327.47;4187020;28;20037;-76
2022/11/12 00:10:54;;;;;;;62.55;18.05;;;10.50;99.90;;;9.66;100.00;102321.50;4202496;28;20032;-75
2022/11/12 00:12:55;;;;;;;74.20;19.25;;;10.50;99.90;;;9.64;100.00;102323.41;4202658;28;20555;-75
2022/11/12 00:14:55;;;;;;;32.53;14.60;;;10.50;99.90;;;9.57;100.00;102325.63;4187293;28;20391;-75
2022/11/12 00:16:56;;;;;;;22.40;12.90;;;10.40;99.90;;;9.52;100.00;102321.66;4187077;28;20084;-75
2022/11/12 00:18:57;;;;;;;16.23;12.63;;;10.40;99.90;;;9.43;100.00;102318.75;4187216;28;20021;-75
2022/11/12 00:20:58;;;;;;;21.27;13.77;;;10.30;99.90;;;9.34;100.00;102315.94;4202447;28;20028;-75
2022/11/12 00:22:59;;;;;;;27.40;15.90;;;10.20;99.90;;;9.26;100.00;102313.81;4202260;28;20036;-75
2022/11/12 00:24:59;;;;;;;26.63;14.13;;;10.20;99.90;;;9.23;100.00;102319.31;4186956;28;20024;-76
2022/11/12 00:27:00;;;;;;;37.40;16.77;;;10.20;99.90;;;9.25;100.00;102321.84;4185721;28;20156;-75
2022/11/12 00:29:02;;;;;;;36.72;16.10;;;10.10;99.90;;;9.27;100.00;102325.19;4202022;28;20028;-75
2022/11/12 00:31:11;;;;;;;47.80;17.75;;;10.10;99.90;;;9.29;100.00;102324.13;4185913;28;20539;-75
2022/11/12 00:33:12;;;;;;;42.67;17.52;;;10.20;99.90;;;9.29;100.00;102325.91;4185281;28;20069;-75
2022/11/12 00:35:13;;;;;;;37.40;16.33;;;10.20;99.90;;;9.29;100.00;102316.22;4186968;28;20029;-75
2022/11/12 00:37:13;;;;;;;44.10;16.65;;;10.20;99.90;;;9.27;100.00;102309.41;4185537;28;20028;-76
2022/11/12 00:39:14;;;;;;;36.70;15.38;;;10.10;99.90;;;9.25;100.00;102309.53;4201882;28;20025;-75
2022/11/12 00:41:15;;;;;;;49.67;16.25;;;10.10;99.90;;;9.23;100.00;102302.66;4186855;28;20068;-76
2022/11/12 00:43:16;;;;;;;19.83;13.65;;;10.10;99.90;;;9.20;100.00;102305.53;4186907;28;20029;-75
2022/11/12 00:45:19;;;;;;;21.90;13.88;;;10.10;99.90;;;9.16;100.00;102304.91;4186678;28;20399;-75
2022/11/12 00:47:20;;;;;;;44.08;15.35;;;10.00;99.90;;;9.09;100.00;102303.66;4186710;28;20037;-75
2022/11/12 00:49:21;;;;;;;18.02;12.52;;;10.00;99.90;;;9.01;100.00;102294.63;4185404;28;20033;-75
2022/11/12 00:51:22;;;;;;;23.85;13.70;;;9.90;99.90;;;8.95;100.00;102293.25;4202456;28;20024;-75
2022/11/12 00:53:23;;;;;;;23.90;14.23;;;9.80;99.90;;;8.94;100.00;102298.63;4185182;28;20112;-75
2022/11/12 00:55:24;;;;;;;30.75;15.80;;;9.80;99.90;;;8.89;100.00;102299.81;4186769;28;20025;-75
2022/11/12 00:57:25;;;;;;;20.55;13.65;;;9.80;99.90;;;8.84;100.00;102301.06;4186449;28;20032;-75
2022/11/12 00:59:25;;;;;;;27.73;14.02;;;9.70;99.90;;;8.78;100.00;102294.41;4186688;28;20033;-75
2022/11/12 01:01:26;;;;;;;26.88;14.07;;;9.70;99.90;;;8.80;100.00;102294.34;4186503;28;20021;-75
2022/11/12 01:03:27;;;;;;;27.42;14.35;;;9.70;99.90;;;8.80;100.00;102284.66;4186455;28;20025;-75
2022/11/12 01:05:28;;;;;;;48.55;16.25;;;9.70;99.90;;;8.85;100.00;102293.06;4186292;28;20028;-75
2022/11/12 01:07:29;;;;;;;35.97;14.90;;;9.70;99.90;;;8.86;100.00;102286.84;4185181;28;20021;-75
2022/11/12 01:09:30;;;;;;;28.85;13.88;;;9.70;99.90;;;8.87;100.00;102288.53;4186204;28;20108;-75
2022/11/12 01:11:31;;;;;;;31.13;15.02;;;9.70;99.90;;;8.85;100.00;102285.16;4185286;28;20021;-76
2022/11/12 01:13:32;;;;;;;23.75;13.57;;;9.70;99.90;;;8.87;100.00;102278.00;4201619;28;20119;-75
2022/11/12 01:15:32;;;;;;;28.15;14.80;;;9.70;99.90;;;8.83;100.00;102280.97;4201666;28;20403;-75
2022/11/12 01:17:34;;;;;;;17.10;13.07;;;9.70;99.90;;;8.82;100.00;102284.53;4201717;28;20017;-75
2022/11/12 01:19:35;;;;;;;33.72;13.38;;;9.70;99.90;;;8.78;100.00;102285.72;4186252;28;20025;-75
2022/11/12 01:21:42;;;;;;;22.25;13.70;;;9.60;99.90;;;8.74;100.00;102287.72;4186111;28;20025;-75
2022/11/12 01:23:43;;;;;;;22.13;13.68;;;9.60;99.90;;;8.71;100.00;102282.66;4184934;28;20032;-75
2022/11/12 01:25:44;;;;;;;22.85;13.75;;;9.60;99.90;;;8.67;100.00;102280.34;4184975;28;20021;-75
2022/11/12 01:27:45;;;;;;;22.98;14.85;;;9.60;99.90;;;8.61;100.00;102278.97;4186131;28;20068;-75
2022/11/12 01:29:45;;;;;;;22.77;14.18;;;9.60;99.90;;;8.62;100.00;102278.03;4186131;28;20051;-75
2022/11/12 01:31:46;;;;;;;18.65;13.35;;;9.50;99.90;;;8.57;100.00;102279.31;4186094;28;20032;-75
2022/11/12 01:33:52;;;;;;;19.50;13.30;;;9.50;99.90;;;8.56;100.00;102282.88;4184597;28;20436;-75
2022/11/12 01:35:57;;;;;;;24.98;15.10;;;9.50;99.90;;;8.47;100.00;102271.19;4186073;28;20086;-75
2022/11/12 01:37:57;;;;;;;90.50;18.85;;;9.40;99.90;;;8.45;100.00;102269.63;4184128;28;20428;-75
2022/11/12 01:39:58;;;;;;;20.15;14.18;;;9.40;99.90;;;8.43;100.00;102274.13;4185530;28;20036;-76
2022/11/12 01:41:59;;;;;;;16.60;13.05;;;9.40;99.90;;;8.42;100.00;102273.31;4184623;28;20025;-76
2022/11/12 01:44:09;;;;;;;17.23;13.02;;;9.30;99.90;;;8.39;100.00;102264.78;4185761;28;20029;-76
2022/11/12 01:46:21;;;;;;;18.25;12.60;;;9.30;99.90;;;8.35;100.00;102264.16;4184459;28;20032;-75
2022/11/12 01:48:38;;;;;;;18.20;13.05;;;9.20;99.90;;;8.28;100.00;102254.97;4185897;28;20029;-75
2022/11/12 01:50:40;;;;;;;20.02;13.73;;;9.20;99.90;;;8.25;100.00;102260.41;4183900;28;20056;-76
2022/11/12 01:53:08;;;;;;;17.63;12.93;;;9.20;99.90;;;8.23;100.00;102257.06;4183458;28;20047;-76
2022/11/12 01:55:24;;;;;;;19.42;14.65;;;9.10;99.90;;;8.19;100.00;102266.09;4184658;28;20029;-76
2022/11/12 01:57:30;;;;;;;16.25;12.15;;;9.10;99.90;;;8.20;100.00;102259.88;4184363;28;20405;-76
2022/11/12 01:59:44;;;;;;;21.88;14.15;;;9.10;99.90;;;8.17;100.00;102262.72;4184681;28;20057;-76
2022/11/12 02:01:44;;;;;;;22.58;13.98;;;9.10;99.90;;;8.17;100.00;102265.34;4184032;28;20057;-76
2022/11/12 02:03:45;;;;;;;21.35;13.93;;;9.00;99.90;;;8.10;100.00;102258.81;4185344;28;20067;-76
2022/11/12 02:06:13;;;;;;;20.10;15.13;;;9.00;99.90;;;8.12;100.00;102278.78;4185623;28;20037;-75
2022/11/12 02:08:14;;;;;;;17.08;13.00;;;9.00;99.90;;;8.06;100.00;102270.50;4185245;28;20035;-75
2022/11/12 02:10:16;;;;;;;17.13;12.32;;;9.00;99.90;;;8.04;100.00;102264.47;4184474;28;20488;-75
2022/11/12 02:14:36;;;;;;;18.77;13.82;;;8.90;99.90;;;7.97;100.00;102258.81;4184322;28;20135;-75
2022/11/12 02:16:43;;;;;;;21.50;15.00;;;8.90;99.90;;;7.97;100.00;102257.97;4185555;28;20029;-75
2022/11/12 02:18:44;;;;;;;18.80;14.38;;;8.90;99.90;;;7.92;100.00;102257.41;4185573;28;20036;-75
2022/11/12 02:20:58;;;;;;;17.70;13.48;;;8.80;99.90;;;7.88;100.00;102253.31;4185479;28;20032;-76
2022/11/12 02:22:59;;;;;;;20.45;13.82;;;8.80;99.90;;;7.85;100.00;102253.53;4183971;28;20021;-75
2022/11/12 02:24:59;;;;;;;18.13;12.98;;;8.80;99.90;;;7.77;100.00;102246.97;4167472;28;20504;-75
2022/11/12 02:27:00;;;;;;;18.17;13.10;;;8.70;99.90;;;7.77;100.00;102252.25;4185310;28;20033;-75
2022/11/12 02:29:02;;;;;;;18.02;13.45;;;8.70;99.90;;;7.75;100.00;102248.88;4184100;28;20435;-76
2022/11/12 02:31:03;;;;;;;19.33;11.80;;;8.60;99.90;;;7.69;100.00;102236.16;4185342;28;20052;-75
2022/11/12 02:33:04;;;;;;;17.85;13.20;;;8.60;99.90;;;7.68;100.00;102234.47;4183784;28;20056;-75
2022/11/12 02:35:05;;;;;;;21.15;13.10;;;8.60;99.90;;;7.67;100.00;102234.56;4200695;28;20104;-75
2022/11/12 02:37:07;;;;;;;19.92;13.38;;;8.60;99.90;;;7.64;100.00;102230.38;4184137;28;20475;-76
2022/11/12 02:39:08;;;;;;;17.15;12.48;;;8.50;99.90;;;7.63;100.00;102233.09;4183731;28;20029;-75
2022/11/12 02:41:09;;;;;;;20.55;14.68;;;8.50;99.90;;;7.60;100.00;102230.66;4185065;28;20021;-75
2022/11/12 02:43:10;;;;;;;16.45;12.40;;;8.50;99.90;;;7.60;100.00;102233.28;4184029;28;20021;-75
2022/11/12 02:45:10;;;;;;;23.50;13.93;;;8.50;99.90;;;7.56;100.00;102224.75;4185103;28;20499;-75
2022/11/12 02:47:11;;;;;;;19.67;13.40;;;8.50;99.90;;;7.53;100.00;102218.84;4167341;28;20131;-75
2022/11/12 02:49:12;;;;;;;20.48;13.30;;;8.40;99.90;;;7.55;100.00;102220.47;4182963;28;20439;-75
2022/11/12 02:51:13;;;;;;;22.83;14.40;;;8.40;99.90;;;7.53;100.00;102211.81;4187197;28;20083;-75
2022/11/12 02:53:14;;;;;;;19.90;13.18;;;8.40;99.90;;;7.51;100.00;102216.34;4188401;28;20064;-75
2022/11/12 02:55:15;;;;;;;19.83;13.90;;;8.40;99.90;;;7.48;100.00;102206.03;4188374;28;20040;-76
2022/11/12 02:57:16;;;;;;;20.58;13.00;;;8.40;99.90;;;7.46;100.00;102205.31;4187163;28;20140;-76
2022/11/12 02:59:16;;;;;;;21.45;13.98;;;8.40;99.90;;;7.44;100.00;102199.31;4203809;28;20032;-76
2022/11/12 03:01:17;;;;;;;19.92;13.45;;;8.40;99.90;;;7.46;100.00;102200.06;4203849;28;20496;-76
2022/11/12 03:03:18;;;;;;;17.35;12.73;;;8.30;99.90;;;7.46;100.00;102201.84;4188384;28;20025;-75
2022/11/12 03:05:19;;;;;;;20.58;12.52;;;8.30;99.90;;;7.40;100.00;102189.97;4188511;28;20033;-75
2022/11/12 03:07:20;;;;;;;17.85;12.23;;;8.30;99.90;;;7.39;100.00;102188.28;4187126;28;20427;-75
2022/11/12 03:09:21;;;;;;;21.02;14.02;;;8.30;99.90;;;7.35;100.00;102175.47;4203503;28;20046;-76
2022/11/12 03:11:21;;;;;;;18.83;13.15;;;8.30;99.90;;;7.35;100.00;102183.34;4188268;28;20029;-75
2022/11/12 03:13:22;;;;;;;20.15;13.38;;;8.30;99.90;;;7.35;100.00;102185.97;4186954;28;20021;-75
2022/11/12 03:15:23;;;;;;;16.38;11.52;;;8.20;99.90;;;7.30;100.00;102194.13;4188016;28;20022;-75
2022/11/12 03:17:24;;;;;;;19.63;13.60;;;8.20;99.90;;;7.31;100.00;102189.72;4188217;28;20056;-75
2022/11/12 03:19:25;;;;;;;19.83;14.07;;;8.20;99.90;;;7.26;100.00;102192.63;4188120;28;20021;-75
2022/11/12 03:21:26;;;;;;;18.15;12.77;;;8.20;99.90;;;7.30;100.00;102188.88;4188016;28;20025;-75
2022/11/12 03:23:27;;;;;;;20.67;14.18;;;8.20;99.90;;;7.27;100.00;102191.69;4186361;28;20021;-75
2022/11/12 03:25:29;;;;;;;17.92;13.43;;;8.20;99.90;;;7.26;100.00;102192.63;4203519;28;20028;-75
2022/11/12 03:27:30;;;;;;;18.08;11.98;;;8.20;99.90;;;7.25;100.00;102201.47;4203502;28;20020;-75
2022/11/12 03:29:30;;;;;;;18.40;13.05;;;8.10;99.90;;;7.20;100.00;102203.50;4187891;28;20029;-75
2022/11/12 03:31:31;;;;;;;18.88;13.77;;;8.10;99.90;;;7.22;100.00;102206.91;4186629;28;20436;-75
2022/11/12 03:33:32;;;;;;;19.20;13.50;;;8.10;99.90;;;7.18;100.00;102202.78;4187676;28;20045;-75
2022/11/12 03:35:34;;;;;;;21.27;13.27;;;8.10;99.90;;;7.16;100.00;102191.56;4203171;28;20025;-75
2022/11/12 03:37:35;;;;;;;16.20;12.68;;;8.00;99.90;;;7.15;100.00;102184.59;4203220;28;20036;-75
2022/11/12 03:39:36;;;;;;;19.92;12.68;;;8.00;99.90;;;7.10;100.00;102173.56;4187491;28;20021;-75
2022/11/12 03:41:37;;;;;;;16.58;12.38;;;8.00;99.90;;;7.09;100.00;102185.00;4186581;28;20605;-75
2022/11/12 03:43:38;;;;;;;17.15;11.73;;;8.00;99.90;;;7.07;100.00;102181.66;4203303;28;20016;-75
2022/11/12 03:45:39;;;;;;;17.92;12.05;;;8.00;99.90;;;7.02;100.00;102173.19;4187555;28;20029;-75
2022/11/12 03:47:46;;;;;;;17.95;12.60;;;8.00;99.90;;;7.07;100.00;102179.03;4186394;28;20028;-75
2022/11/12 03:49:47;;;;;;;17.95;11.85;;;8.00;99.90;;;7.02;100.00;102176.69;4176445;28;20029;-75
2022/11/12 03:51:48;;;;;;;19.67;12.63;;;7.90;99.90;;;7.04;100.00;102176.59;4187563;28;20029;-75
2022/11/12 03:53:49;;;;;;;16.83;12.32;;;7.90;99.90;;;7.02;100.00;102175.81;4186169;28;20028;-75
2022/11/12 03:55:50;;;;;;;16.92;11.38;;;7.90;99.90;;;7.00;100.00;102175.94;4203002;28;20078;-75
2022/11/12 03:57:53;;;;;;;17.35;10.90;;;7.90;99.90;;;6.97;100.00;102165.63;4187286;28;20107;-75
2022/11/12 03:59:54;;;;;;;15.52;11.98;;;7.90;99.90;;;6.95;100.00;102178.03;4185709;28;20099;-75
2022/11/12 04:01:55;;;;;;;18.77;12.88;;;7.90;99.90;;;6.97;100.00;102170.88;4185363;28;20032;-75
2022/11/12 04:03:55;;;;;;;19.42;11.93;;;7.90;99.90;;;6.97;100.00;102167.41;4186026;28;20024;-75
2022/11/12 04:08:36;;;;;;;19.90;12.48;;;7.80;99.90;;;6.90;100.00;102168.78;4200380;28;20035;-75
2022/11/12 04:10:37;;;;;;;17.20;11.95;;;7.80;99.90;;;6.87;100.00;102168.97;4187561;28;20081;-75
2022/11/12 04:14:57;;;;;;;17.30;12.05;;;7.80;99.90;;;6.88;100.00;102166.22;4187244;28;20032;-75
2022/11/12 04:21:55;;;;;;;17.15;11.38;;;7.80;99.90;;;6.91;100.00;102167.81;4187029;28;20036;-75
2022/11/12 04:23:56;;;;;;;17.52;11.32;;;7.80;99.90;;;6.89;100.00;102174.94;4185662;28;20029;-75
2022/11/12 04:28:16;;;;;;;19.10;13.55;;;7.80;99.90;;;6.90;100.00;102180.06;4185900;28;20071;-75
2022/11/12 04:30:20;;;;;;;16.48;12.35;;;7.80;99.90;;;6.87;100.00;102166.34;4169195;28;20025;-75
2022/11/12 04:32:21;;;;;;;17.90;12.57;;;7.80;99.90;;;6.86;100.00;102176.00;4186055;28;20033;-75
2022/11/12 04:34:28;;;;;;;17.63;12.40;;;7.80;99.90;;;6.89;100.00;102170.53;4185489;28;20528;-75
2022/11/12 04:36:29;;;;;;;17.95;12.32;;;7.80;99.90;;;6.88;100.00;102168.84;4185782;28;20029;-75
2022/11/12 04:38:29;;;;;;;17.00;11.50;;;7.80;99.90;;;6.93;100.00;102179.06;4185499;28;20021;-75
2022/11/12 04:45:10;;;;;;;15.77;11.50;;;7.80;99.90;;;6.93;100.00;102179.88;4185699;28;20609;-75
2022/11/12 04:47:11;;;;;;;15.52;11.70;;;7.90;99.90;;;6.91;100.00;102178.31;4169526;28;20030;-75
2022/11/12 04:49:12;;;;;;;20.58;12.57;;;7.90;99.90;;;6.91;100.00;102170.44;4183830;28;20033;-75
2022/11/12 04:53:32;;;;;;;18.77;12.25;;;7.80;99.90;;;6.89;100.00;102173.16;4199511;28;20087;-75
2022/11/12 04:55:33;;;;;;;17.88;11.07;;;7.80;99.90;;;6.89;100.00;102177.56;4185316;28;20028;-75
2022/11/12 04:57:34;;;;;;;24.33;12.48;;;7.80;99.90;;;6.88;100.00;102170.63;4186604;28;20036;-75
2022/11/12 04:59:35;;;;;;;17.25;11.25;;;7.80;99.90;;;6.91;100.00;102178.31;4168947;28;20025;-75
2022/11/12 05:01:36;;;;;;;14.70;11.13;;;7.80;99.90;;;6.93;100.00;102184.31;4168422;28;20433;-76
2022/11/12 05:03:37;;;;;;;21.33;10.98;;;7.80;99.90;;;6.92;100.00;102174.75;4186484;28;20032;-75
2022/11/12 05:05:37;;;;;;;15.60;11.65;;;7.80;99.90;;;6.93;100.00;102168.56;4186391;28;20025;-75
2022/11/12 05:07:38;;;;;;;21.80;12.25;;;7.80;99.90;;;6.94;100.00;102176.34;4185182;28;20104;-75
2022/11/12 05:09:40;;;;;;;17.23;11.48;;;7.80;99.90;;;6.94;100.00;102168.47;4185302;28;20028;-75
2022/11/12 05:11:41;;;;;;;14.38;10.90;;;7.80;99.90;;;6.95;100.00;102177.19;4185261;28;20029;-75
2022/11/12 05:13:42;;;;;;;17.20;11.20;;;7.80;99.90;;;6.94;100.00;102163.22;4185184;28;20057;-75
2022/11/12 05:15:43;;;;;;;19.48;11.63;;;7.80;99.90;;;6.95;100.00;102170.16;4186464;28;20439;-75
2022/11/12 05:17:44;;;;;;;16.05;11.18;;;7.80;99.90;;;6.96;100.00;102160.50;4186357;28;20021;-76
2022/11/12 05:19:45;;;;;;;17.50;11.20;;;7.90;99.90;;;6.97;100.00;102149.06;4184993;28;20031;-75
2022/11/12 05:22:05;;;;;;;18.10;11.75;;;7.90;99.90;;;6.97;100.00;102149.91;4186185;28;20018;-76
2022/11/12 05:24:06;;;;;;;14.90;10.52;;;7.90;99.90;;;7.00;100.00;102154.94;4184972;28;20044;-76
2022/11/12 05:26:07;;;;;;;21.10;12.07;;;7.90;99.90;;;6.97;100.00;102157.78;4185280;28;20025;-75
2022/11/12 05:28:08;;;;;;;19.40;11.65;;;7.90;99.90;;;6.95;100.00;102154.41;4186166;28;20036;-75
2022/11/12 05:30:09;;;;;;;23.25;12.52;;;7.90;99.90;;;7.04;100.00;102168.72;4168391;28;20041;-75
2022/11/12 05:32:13;;;;;;;15.43;11.45;;;7.90;99.90;;;7.02;100.00;102150.44;4186238;28;20078;-75
2022/11/12 05:34:14;;;;;;;18.23;11.88;;;7.90;99.90;;;6.99;100.00;102158.50;4185782;28;20044;-75
2022/11/12 05:36:15;;;;;;;16.50;12.07;;;7.90;99.90;;;7.03;100.00;102153.91;4184710;28;20454;-75
2022/11/12 05:38:16;;;;;;;17.05;12.40;;;7.90;99.90;;;7.00;100.00;102151.47;4185819;28;20022;-75
2022/11/12 05:40:17;;;;;;;18.48;12.80;;;7.90;99.90;;;7.00;100.00;102149.72;4184983;28;20029;-75
2022/11/12 05:42:17;;;;;;;16.77;10.88;;;7.90;99.90;;;6.98;100.00;102154.22;4184604;28;20028;-75
2022/11/12 05:44:19;;;;;;;15.85;9.73;;;7.90;99.90;;;6.94;100.00;102146.63;4200987;28;20083;-75
2022/11/12 05:46:20;;;;;;;15.55;11.32;;;7.80;99.90;;;6.90;100.00;102145.16;4184671;28;20546;-75
2022/11/12 05:48:21;;;;;;;14.13;10.55;;;7.80;99.90;;;6.88;100.00;102150.50;4184636;28;20033;-75
2022/11/12 05:50:22;;;;;;;15.75;10.35;;;7.80;99.90;;;6.87;100.00;102161.91;4201091;28;20421;-75
2022/11/12 05:52:23;;;;;;;14.02;10.60;;;7.80;99.90;;;6.83;100.00;102149.09;4185640;28;20033;-75
2022/11/12 05:54:24;;;;;;;17.35;10.85;;;7.70;99.90;;;6.86;100.00;102156.78;4184454;28;20618;-75
2022/11/12 05:56:24;;;;;;;15.75;9.73;;;7.70;99.90;;;6.84;100.00;102145.56;4185763;28;20021;-75
2022/11/12 05:58:25;;;;;;;17.58;10.90;;;7.70;99.90;;;6.82;100.00;102145.63;4184468;28;20040;-75
2022/11/12 06:00:26;;;;;;;18.13;10.05;;;7.70;99.90;;;6.77;100.00;102139.00;4201137;28;20411;-75
2022/11/12 06:02:27;;;;;;;18.15;11.05;;;7.70;99.90;;;6.83;100.00;102146.47;4200949;28;20021;-75
2022/11/12 06:04:28;;;;;;;16.95;10.40;;;7.70;99.90;;;6.75;100.00;102140.91;4185467;28;20032;-75
2022/11/12 06:06:29;;;;;;;15.00;10.52;;;7.70;99.90;;;6.76;100.00;102146.03;4185696;28;20025;-75
2022/11/12 06:08:30;;;;;;;14.57;10.27;;;7.70;99.90;;;6.78;100.00;102148.56;4185452;28;20085;-75
2022/11/12 06:10:32;;;;;;;17.60;10.32;;;7.70;99.90;;;6.77;100.00;102149.50;4184110;28;20029;-75
2022/11/12 06:12:33;;;;;;;16.42;10.88;;;7.70;99.90;;;6.74;100.00;102147.06;4167786;28;20591;-75
2022/11/12 06:14:34;;;;;;;18.65;10.45;;;7.70;99.90;;;6.69;100.00;102150.81;4185334;28;20029;-75
2022/11/12 06:16:35;;;;;;;13.30;9.90;;;7.60;99.90;;;6.72;100.00;102154.19;4185375;28;20408;-75
2022/11/12 06:18:36;;;;;;;13.43;9.77;;;7.60;99.90;;;6.72;100.00;102149.75;4182737;28;20524;-75
2022/11/12 06:20:37;;;;;;;13.35;9.40;;;7.60;99.90;;;6.70;100.00;102138.53;4200846;28;20507;-75
2022/11/12 06:22:38;;;;;;;13.63;9.93;;;7.60;99.90;;;6.67;100.00;102131.72;4200677;28;20016;-75
2022/11/12 06:24:39;;;;;;;13.68;10.13;;;7.60;99.90;;;6.64;100.00;102139.78;4200431;28;20039;-75
2022/11/12 06:26:39;;;;;;;18.25;9.75;;;7.60;99.90;;;6.64;100.00;102134.53;4185294;28;20033;-75
2022/11/12 06:28:40;;;;;;;18.48;10.57;;;7.60;99.90;;;6.61;100.00;102133.88;4185192;28;20377;-75
2022/11/12 06:30:41;;;;;;;15.48;9.60;;;7.60;99.90;;;6.62;100.00;102136.41;4185362;28;20094;-75
2022/11/12 06:32:46;;;;;;;17.27;10.23;;;7.50;99.90;;;6.59;100.00;102122.66;4184921;28;20043;-75
2022/11/12 06:34:49;;;;;;;16.63;9.85;;;7.50;99.90;;;6.60;100.00;102125.16;4184968;28;20103;-75
2022/11/12 06:36:50;;;;;;;17.13;11.27;;;7.50;99.90;;;6.59;100.00;102122.66;4185344;28;20044;-75
2022/11/12 06:38:51;;;;;;;14.88;10.45;;;7.50;99.90;;;6.62;100.00;102127.72;4184901;28;20028;-75
2022/11/12 06:40:52;;;;;;;19.00;11.70;;;7.50;99.90;;;6.59;100.00;102138.38;4200606;28;20041;-75
2022/11/12 06:42:57;;;;;;;21.38;11.05;;;7.50;99.90;;;6.57;100.00;102130.59;4200466;28;20029;-75
2022/11/12 06:44:58;;;;;;;16.33;11.02;;;7.50;99.90;;;6.57;100.00;102143.72;4184920;28;20021;-75
2022/11/12 06:46:59;;;;;;;19.70;12.13;;;7.50;99.90;;;6.59;100.00;102138.38;4200205;28;20078;-75
2022/11/12 06:48:59;;;;;;;15.75;11.13;;;7.50;99.90;;;6.59;100.00;102139.22;4185184;28;20029;-76
2022/11/12 06:51:07;;;;;;;15.98;10.73;;;7.50;99.90;;;6.59;100.00;102149.72;4184962;28;20040;-75
2022/11/12 06:53:08;;;;;;;15.45;10.25;;;7.50;99.90;;;6.58;100.00;102142.78;4200178;28;20032;-76
2022/11/12 06:55:09;;;;;;;15.18;10.05;;;7.50;99.90;;;6.59;100.00;102141.00;4200395;28;20040;-76
2022/11/12 06:57:10;;;;;;;14.80;10.23;;;7.50;99.90;;;6.58;100.00;102140.16;4200612;28;20025;-75
2022/11/12 06:59:11;;;;;;;17.02;11.75;;;7.50;99.90;;;6.56;100.00;102149.91;4200141;28;20025;-75
2022/11/12 07:01:15;;;;;;;18.20;10.57;;;7.50;99.90;;;6.57;100.00;102156.00;4200394;28;20047;-75
2022/11/12 07:03:16;;;;;;;;;;;7.50;99.90;;;6.49;100.00;102155.63;4185464;28;20029;-76
2022/11/12 07:05:17;;;;;;;20.38;10.95;;;7.50;99.90;;;6.51;100.00;102169.50;4183829;28;19954;-76
2022/11/12 07:07:18;;;;;;;16.55;10.88;;;7.40;99.90;;;6.49;100.00;102169.56;4184842;28;20032;-75
2022/11/12 07:09:18;;;;;;;13.23;10.65;;;7.40;99.90;;;6.49;100.00;102166.94;4200227;28;20387;-75
2022/11/12 07:11:20;;;;;;;15.23;11.35;;;7.40;99.90;;;6.51;100.00;102178.16;4184918;28;20029;-75
2022/11/12 07:13:21;;;;;;;14.93;10.95;;;7.40;99.90;;;6.52;100.00;102155.44;4185163;28;20032;-75
2022/11/12 07:15:21;;;;;;;24.85;10.93;;;7.40;99.90;;;6.57;100.00;102164.69;4200202;28;20534;-75
2022/11/12 07:17:22;;;;;;;14.98;10.48;;;7.40;99.90;;;6.53;100.00;102150.09;4200143;28;20404;-76
2022/11/12 07:19:23;;;;;;;14.77;9.98;;;7.40;99.90;;;6.56;100.00;102160.41;4200301;28;20391;-75
2022/11/12 07:21:25;;;;;;;15.52;10.07;;;7.50;99.90;;;6.52;100.00;102156.28;4200205;28;20025;-75
2022/11/12 07:23:27;;;;;;;18.38;11.13;;;7.50;99.90;;;6.50;100.00;102155.53;4199694;28;20081;-75
2022/11/12 07:25:28;;;;;;;17.73;11.90;;;7.50;99.90;;;6.47;100.00;102171.47;4200257;28;20028;-75
2022/11/12 07:27:30;;;;;;;19.80;12.35;;;7.50;99.90;;;6.48;100.00;102165.25;4183513;28;20021;-75
2022/11/12 07:29:31;;;;;;;16.33;11.90;;;7.40;99.90;;;6.52;100.00;102177.25;4200405;28;20545;-75
2022/11/12 07:31:32;;;;;;;17.58;12.55;;;7.40;99.90;;;6.51;100.00;102167.69;4184829;28;20025;-75
2022/11/12 07:33:33;;;;;;;18.45;13.45;;;7.40;99.90;;;6.56;100.00;102178.75;4199983;28;20106;-75
2022/11/12 07:35:34;;;;;;;20.88;13.45;;;7.50;99.90;;;6.51;100.00;102170.31;4184769;28;20021;-75
2022/11/12 07:37:35;;;;;;;19.00;13.80;;;7.50;99.90;;;6.58;100.00;102184.72;4185122;28;20036;-75
2022/11/12 07:39:36;;;;;;;19.10;13.88;;;7.50;99.90;;;6.62;100.00;102188.00;4187734;28;20025;-75
2022/11/12 07:41:37;;;;;;;17.95;12.55;;;7.50;99.90;;;6.67;100.00;102185.94;4186545;28;20029;-75
2022/11/12 07:43:39;;;;;;;18.08;13.23;;;7.50;99.90;;;6.68;100.00;102188.47;4187760;28;20059;-75
2022/11/12 07:45:39;;;;;;;18.00;11.90;;;7.60;99.90;;;6.68;100.00;102185.84;4201849;28;20077;-75
2022/11/12 07:47:40;;;;;;;17.42;12.88;;;7.60;99.90;;;6.73;100.00;102196.03;4186040;28;20492;-76
2022/11/12 07:49:41;;;;;;;16.45;12.00;;;7.60;99.90;;;6.76;100.00;102208.13;4187729;28;20381;-76
2022/11/12 07:51:42;;;;;;;14.25;10.48;;;7.70;99.90;;;6.78;100.00;102207.06;4187537;28;20086;-75
2022/11/12 07:53:44;;;;;;;17.30;11.27;;;7.70;99.90;;;6.82;100.00;102218.22;4187218;28;20094;-76
2022/11/12 07:55:56;;;;;;;15.48;11.05;;;7.70;99.90;;;6.89;100.00;102235.28;4186183;28;20056;-76
2022/11/12 07:58:00;;;;;;;16.80;10.82;;;7.80;99.90;;;6.94;100.00;102238.44;4202619;28;20020;-76
2022/11/12 08:00:02;;;;;;;19.40;11.18;;;7.80;99.90;;;7.02;100.00;102244.88;4187550;28;20025;-76
2022/11/12 08:02:03;;;;;;;19.02;12.50;;;7.90;99.90;;;7.14;100.00;102256.38;4202840;28;20070;-75
2022/11/12 08:04:08;;;;;;;22.65;13.35;;;8.00;99.90;;;7.20;100.00;102261.25;4187417;28;20072;-75
2022/11/12 08:06:09;;;;;;;23.00;12.85;;;8.10;99.90;;;7.27;100.00;102256.47;4202846;28;20036;-76
2022/11/12 08:08:10;;;;;;;21.98;12.60;;;8.10;99.90;;;7.38;100.00;102252.19;4202775;28;20024;-75
2022/11/12 08:10:10;;;;;;;24.05;12.80;;;8.20;99.90;;;7.47;100.00;102254.25;4202745;28;20028;-75
2022/11/12 08:12:11;;;;;;;21.17;13.48;;;8.30;99.90;;;7.56;100.00;102245.75;4202627;28;20036;-75
2022/11/12 08:14:12;;;;;;;18.20;12.07;;;8.40;99.90;;;7.65;100.00;102257.44;4187299;28;20029;-76
2022/11/12 08:16:13;;;;;;;16.20;12.07;;;8.50;99.90;;;7.70;100.00;102255.38;4187333;28;20029;-76
2022/11/12 08:18:14;;;;;;;18.25;12.07;;;8.60;99.90;;;7.77;100.00;102256.66;4187290;28;20036;-75
2022/11/12 08:20:15;;;;;;;16.95;12.07;;;8.70;99.90;;;7.93;100.00;102257.31;4187031;28;20025;-75
2022/11/12 08:22:15;;;;;;;17.67;12.82;;;8.70;99.90;;;7.99;100.00;102250.81;4202634;28;20032;-75
2022/11/12 08:24:16;;;;;;;18.35;12.52;;;8.80;99.90;;;8.07;100.00;102248.50;4186930;28;20545;-75
2022/11/12 08:26:19;;;;;;;20.55;12.65;;;9.00;99.90;;;8.19;100.00;102259.03;4202471;28;20439;-75
2022/11/12 08:28:20;;;;;;;19.77;13.38;;;9.10;99.90;;;8.34;100.00;102259.81;4185611;28;20506;-75
2022/11/12 08:30:20;;;;;;;24.48;13.95;;;9.20;99.90;;;8.42;100.00;102268.06;4202493;28;20039;-75
2022/11/12 08:32:21;;;;;;;22.35;14.13;;;9.30;99.90;;;8.55;100.00;102270.66;4187069;28;20029;-75
2022/11/12 08:34:22;;;;;;;24.50;13.73;;;9.40;99.90;;;8.74;100.00;102271.94;4201683;28;20049;-75
2022/11/12 08:36:23;;;;;;;21.50;12.55;;;9.50;99.90;;;8.77;100.00;102284.03;4185518;28;20028;-77
2022/11/12 08:38:24;;;;;;;22.83;13.90;;;9.60;99.90;;;8.80;100.00;102268.03;4186683;28;20036;-76
2022/11/12 08:40:26;;;;;;;18.10;12.27;;;9.70;99.90;;;8.88;100.00;102268.31;4202165;28;20102;-76
2022/11/12 08:42:27;;;;;;;21.58;13.15;;;9.80;99.90;;;8.90;100.00;102277.78;4186869;28;20107;-76